sensor_id;sensor_type;location;lat;lon;timestamp;P1;durP1;ratioP1;P2;durP2;ratioP2
10894;SDS011;5500;49.886;8.074;2023-02-01T00:01:11;3.47;;;2.70;;
10894;SDS011;5500;49.886;8.074;2023-02-01T00:03:38;3.87;;;3.00;;
10894;SDS011;5500;49.886;8.074;2023-02-01T00:06:06;3.53;;;3.10;;
10894;SDS011;5500;49.886;8.074;2023-02-01T00:08:34;5.43;;;2.93;;
10894;SDS011;5500;49.886;8.074;2023-02-01T00:11:03;3.43;;;2.93;;
10894;SDS011;5500;49.886;8.074;2023-02-01T00:13:32;4.43;;;3.23;;
10894;SDS011;5500;49.886;8.074;2023-02-01T00:16:04;4.80;;;3.27;;
10894;SDS011;5500;49.886;8.074;2023-02-01T00:18:34;4.03;;;3.03;;
10894;SDS011;5500;49.886;8.074;2023-02-01T00:21:02;3.60;;;3.30;;
10894;SDS011;5500;49.886;8.074;2023-02-01T00:23:31;3.53;;;3.20;;
10894;SDS011;5500;49.886;8.074;2023-02-01T00:26:00;4.13;;;3.40;;
10894;SDS011;5500;49.886;8.074;2023-02-01T00:28:28;3.73;;;3.30;;
10894;SDS011;5500;49.886;8.074;2023-02-01T00:30:56;4.50;;;3.20;;
10894;SDS011;5500;49.886;8.074;2023-02-01T00:33:24;5.20;;;3.70;;
10894;SDS011;5500;49.886;8.074;2023-02-01T00:35:56;4.80;;;3.77;;
10894;SDS011;5500;49.886;8.074;2023-02-01T00:38:25;4.03;;;3.67;;
10894;SDS011;5500;49.886;8.074;2023-02-01T00:40:53;5.40;;;3.47;;
10894;SDS011;5500;49.886;8.074;2023-02-01T00:43:21;4.57;;;3.90;;
10894;SDS011;5500;49.886;8.074;2023-02-01T00:45:48;5.47;;;3.70;;
10894;SDS011;5500;49.886;8.074;2023-02-01T00:48:16;4.17;;;3.77;;
10894;SDS011;5500;49.886;8.074;2023-02-01T00:50:44;4.23;;;3.83;;
10894;SDS011;5500;49.886;8.074;2023-02-01T00:53:13;5.37;;;3.90;;
10894;SDS011;5500;49.886;8.074;2023-02-01T00:55:40;5.77;;;4.00;;
10894;SDS011;5500;49.886;8.074;2023-02-01T00:58:11;4.10;;;3.70;;
10894;SDS011;5500;49.886;8.074;2023-02-01T01:00:39;5.53;;;4.87;;
10894;SDS011;5500;49.886;8.074;2023-02-01T01:03:07;4.83;;;4.23;;
10894;SDS011;5500;49.886;8.074;2023-02-01T01:05:44;8.97;;;4.60;;
10894;SDS011;5500;49.886;8.074;2023-02-01T01:08:13;6.63;;;4.20;;
10894;SDS011;5500;49.886;8.074;2023-02-01T01:10:41;7.47;;;4.67;;
10894;SDS011;5500;49.886;8.074;2023-02-01T01:13:10;6.90;;;4.33;;
10894;SDS011;5500;49.886;8.074;2023-02-01T01:15:38;5.50;;;4.53;;
10894;SDS011;5500;49.886;8.074;2023-02-01T01:18:06;8.90;;;4.83;;
10894;SDS011;5500;49.886;8.074;2023-02-01T01:20:35;4.97;;;4.07;;
10894;SDS011;5500;49.886;8.074;2023-02-01T01:23:04;5.83;;;4.13;;
10894;SDS011;5500;49.886;8.074;2023-02-01T01:25:36;5.93;;;4.77;;
10894;SDS011;5500;49.886;8.074;2023-02-01T01:28:04;6.10;;;4.70;;
10894;SDS011;5500;49.886;8.074;2023-02-01T01:30:33;8.97;;;5.00;;
10894;SDS011;5500;49.886;8.074;2023-02-01T01:33:00;7.47;;;4.43;;
10894;SDS011;5500;49.886;8.074;2023-02-01T01:35:28;6.20;;;4.60;;
10894;SDS011;5500;49.886;8.074;2023-02-01T01:37:56;8.47;;;4.87;;
10894;SDS011;5500;49.886;8.074;2023-02-01T01:40:25;7.37;;;4.90;;
10894;SDS011;5500;49.886;8.074;2023-02-01T01:42:54;7.17;;;4.60;;
10894;SDS011;5500;49.886;8.074;2023-02-01T01:45:23;6.77;;;5.63;;
10894;SDS011;5500;49.886;8.074;2023-02-01T01:47:53;10.93;;;5.77;;
10894;SDS011;5500;49.886;8.074;2023-02-01T01:50:23;6.27;;;4.70;;
10894;SDS011;5500;49.886;8.074;2023-02-01T01:52:52;8.93;;;5.50;;
10894;SDS011;5500;49.886;8.074;2023-02-01T01:55:22;7.27;;;5.40;;
10894;SDS011;5500;49.886;8.074;2023-02-01T01:57:51;5.60;;;4.63;;
10894;SDS011;5500;49.886;8.074;2023-02-01T02:00:22;8.13;;;5.43;;
10894;SDS011;5500;49.886;8.074;2023-02-01T02:02:53;5.20;;;4.70;;
10894;SDS011;5500;49.886;8.074;2023-02-01T02:05:22;6.70;;;5.20;;
10894;SDS011;5500;49.886;8.074;2023-02-01T02:07:50;8.17;;;5.60;;
10894;SDS011;5500;49.886;8.074;2023-02-01T02:10:20;10.80;;;5.60;;
10894;SDS011;5500;49.886;8.074;2023-02-01T02:13:09;6.17;;;5.00;;
10894;SDS011;5500;49.886;8.074;2023-02-01T02:18:25;7.77;;;5.47;;
10894;SDS011;5500;49.886;8.074;2023-02-01T02:21:02;7.47;;;5.20;;
10894;SDS011;5500;49.886;8.074;2023-02-01T02:24:00;6.97;;;5.20;;
10894;SDS011;5500;49.886;8.074;2023-02-01T02:26:51;5.10;;;4.60;;
10894;SDS011;5500;49.886;8.074;2023-02-01T02:32:21;12.03;;;5.60;;
10894;SDS011;5500;49.886;8.074;2023-02-01T02:35:01;6.60;;;4.90;;
10894;SDS011;5500;49.886;8.074;2023-02-01T02:37:30;7.27;;;5.10;;
10894;SDS011;5500;49.886;8.074;2023-02-01T02:40:04;7.83;;;4.97;;
10894;SDS011;5500;49.886;8.074;2023-02-01T02:42:37;5.17;;;4.23;;
10894;SDS011;5500;49.886;8.074;2023-02-01T02:45:25;6.43;;;4.70;;
10894;SDS011;5500;49.886;8.074;2023-02-01T02:48:15;6.80;;;4.37;;
10894;SDS011;5500;49.886;8.074;2023-02-01T02:50:49;7.60;;;4.87;;
10894;SDS011;5500;49.886;8.074;2023-02-01T02:53:38;8.40;;;5.10;;
10894;SDS011;5500;49.886;8.074;2023-02-01T02:56:28;5.83;;;4.03;;
10894;SDS011;5500;49.886;8.074;2023-02-01T02:59:14;9.33;;;4.53;;
10894;SDS011;5500;49.886;8.074;2023-02-01T03:02:01;6.83;;;4.53;;
10894;SDS011;5500;49.886;8.074;2023-02-01T03:04:46;6.83;;;4.83;;
10894;SDS011;5500;49.886;8.074;2023-02-01T03:10:23;8.60;;;4.93;;
10894;SDS011;5500;49.886;8.074;2023-02-01T03:12:53;8.57;;;4.43;;
10894;SDS011;5500;49.886;8.074;2023-02-01T03:15:24;4.93;;;3.93;;
10894;SDS011;5500;49.886;8.074;2023-02-01T03:17:56;9.43;;;4.60;;
10894;SDS011;5500;49.886;8.074;2023-02-01T03:20:25;5.00;;;4.37;;
10894;SDS011;5500;49.886;8.074;2023-02-01T03:22:54;6.37;;;4.67;;
10894;SDS011;5500;49.886;8.074;2023-02-01T03:25:23;8.33;;;4.67;;
10894;SDS011;5500;49.886;8.074;2023-02-01T03:27:54;8.43;;;5.20;;
10894;SDS011;5500;49.886;8.074;2023-02-01T03:30:27;6.70;;;4.43;;
10894;SDS011;5500;49.886;8.074;2023-02-01T03:32:57;6.33;;;4.63;;
10894;SDS011;5500;49.886;8.074;2023-02-01T03:35:30;5.20;;;4.70;;
10894;SDS011;5500;49.886;8.074;2023-02-01T03:38:03;5.30;;;4.20;;
10894;SDS011;5500;49.886;8.074;2023-02-01T03:40:35;8.77;;;4.43;;
10894;SDS011;5500;49.886;8.074;2023-02-01T03:43:04;7.13;;;4.40;;
10894;SDS011;5500;49.886;8.074;2023-02-01T03:45:34;6.00;;;4.33;;
10894;SDS011;5500;49.886;8.074;2023-02-01T03:48:05;5.87;;;4.47;;
10894;SDS011;5500;49.886;8.074;2023-02-01T03:50:34;5.93;;;4.27;;
10894;SDS011;5500;49.886;8.074;2023-02-01T03:53:05;5.07;;;4.40;;
10894;SDS011;5500;49.886;8.074;2023-02-01T03:55:35;7.23;;;4.93;;
10894;SDS011;5500;49.886;8.074;2023-02-01T03:58:04;6.67;;;4.40;;
10894;SDS011;5500;49.886;8.074;2023-02-01T04:00:34;4.23;;;3.83;;
10894;SDS011;5500;49.886;8.074;2023-02-01T04:03:02;5.87;;;3.70;;
10894;SDS011;5500;49.886;8.074;2023-02-01T04:05:31;4.17;;;3.40;;
10894;SDS011;5500;49.886;8.074;2023-02-01T04:07:59;6.10;;;3.60;;
10894;SDS011;5500;49.886;8.074;2023-02-01T04:10:28;6.40;;;3.50;;
10894;SDS011;5500;49.886;8.074;2023-02-01T04:12:55;4.10;;;3.30;;
10894;SDS011;5500;49.886;8.074;2023-02-01T04:15:23;3.57;;;2.90;;
10894;SDS011;5500;49.886;8.074;2023-02-01T04:17:51;5.43;;;3.13;;
10894;SDS011;5500;49.886;8.074;2023-02-01T04:20:19;6.93;;;3.60;;
10894;SDS011;5500;49.886;8.074;2023-02-01T04:22:47;6.40;;;4.03;;
10894;SDS011;5500;49.886;8.074;2023-02-01T04:25:14;3.47;;;2.90;;
10894;SDS011;5500;49.886;8.074;2023-02-01T04:27:44;5.30;;;3.07;;
10894;SDS011;5500;49.886;8.074;2023-02-01T04:30:12;3.63;;;3.33;;
10894;SDS011;5500;49.886;8.074;2023-02-01T04:32:40;5.13;;;3.00;;
10894;SDS011;5500;49.886;8.074;2023-02-01T04:35:08;5.13;;;3.13;;
10894;SDS011;5500;49.886;8.074;2023-02-01T04:37:37;4.20;;;2.87;;
10894;SDS011;5500;49.886;8.074;2023-02-01T04:40:05;5.47;;;3.10;;
10894;SDS011;5500;49.886;8.074;2023-02-01T04:42:34;5.97;;;2.73;;
10894;SDS011;5500;49.886;8.074;2023-02-01T04:45:03;4.90;;;2.77;;
10894;SDS011;5500;49.886;8.074;2023-02-01T04:47:31;6.33;;;2.93;;
10894;SDS011;5500;49.886;8.074;2023-02-01T04:49:59;6.30;;;2.70;;
10894;SDS011;5500;49.886;8.074;2023-02-01T04:52:26;9.13;;;3.07;;
10894;SDS011;5500;49.886;8.074;2023-02-01T04:54:54;6.53;;;3.10;;
10894;SDS011;5500;49.886;8.074;2023-02-01T04:57:24;5.63;;;2.50;;
10894;SDS011;5500;49.886;8.074;2023-02-01T04:59:52;5.57;;;2.43;;
10894;SDS011;5500;49.886;8.074;2023-02-01T05:02:21;3.70;;;2.27;;
10894;SDS011;5500;49.886;8.074;2023-02-01T05:04:49;7.00;;;2.30;;
10894;SDS011;5500;49.886;8.074;2023-02-01T05:07:17;5.50;;;2.07;;
10894;SDS011;5500;49.886;8.074;2023-02-01T05:09:44;4.93;;;1.70;;
10894;SDS011;5500;49.886;8.074;2023-02-01T05:12:12;4.40;;;2.00;;
10894;SDS011;5500;49.886;8.074;2023-02-01T05:14:57;2.23;;;1.40;;
10894;SDS011;5500;49.886;8.074;2023-02-01T05:17:26;2.97;;;1.67;;
10894;SDS011;5500;49.886;8.074;2023-02-01T05:19:54;3.90;;;1.23;;
10894;SDS011;5500;49.886;8.074;2023-02-01T05:22:21;4.43;;;1.53;;
10894;SDS011;5500;49.886;8.074;2023-02-01T05:24:49;1.87;;;1.17;;
10894;SDS011;5500;49.886;8.074;2023-02-01T05:27:17;4.00;;;1.50;;
10894;SDS011;5500;49.886;8.074;2023-02-01T05:29:44;2.40;;;1.30;;
10894;SDS011;5500;49.886;8.074;2023-02-01T05:32:12;4.20;;;1.33;;
10894;SDS011;5500;49.886;8.074;2023-02-01T05:34:49;3.03;;;1.60;;
10894;SDS011;5500;49.886;8.074;2023-02-01T05:37:17;2.57;;;1.60;;
10894;SDS011;5500;49.886;8.074;2023-02-01T05:39:44;3.83;;;1.50;;
10894;SDS011;5500;49.886;8.074;2023-02-01T05:42:12;1.57;;;1.40;;
10894;SDS011;5500;49.886;8.074;2023-02-01T05:44:39;2.77;;;1.33;;
10894;SDS011;5500;49.886;8.074;2023-02-01T05:47:07;2.77;;;1.60;;
10894;SDS011;5500;49.886;8.074;2023-02-01T05:49:35;5.77;;;1.60;;
10894;SDS011;5500;49.886;8.074;2023-02-01T05:52:04;2.83;;;1.57;;
10894;SDS011;5500;49.886;8.074;2023-02-01T05:54:31;3.13;;;1.70;;
10894;SDS011;5500;49.886;8.074;2023-02-01T05:56:59;3.33;;;1.80;;
10894;SDS011;5500;49.886;8.074;2023-02-01T05:59:27;2.70;;;1.80;;
10894;SDS011;5500;49.886;8.074;2023-02-01T06:01:55;6.07;;;1.73;;
10894;SDS011;5500;49.886;8.074;2023-02-01T06:04:23;4.70;;;1.47;;
10894;SDS011;5500;49.886;8.074;2023-02-01T06:06:50;5.13;;;2.00;;
10894;SDS011;5500;49.886;8.074;2023-02-01T06:09:19;2.80;;;1.67;;
10894;SDS011;5500;49.886;8.074;2023-02-01T06:11:50;6.10;;;2.17;;
10894;SDS011;5500;49.886;8.074;2023-02-01T06:14:18;5.73;;;2.13;;
10894;SDS011;5500;49.886;8.074;2023-02-01T06:16:46;3.23;;;2.07;;
10894;SDS011;5500;49.886;8.074;2023-02-01T06:19:13;3.20;;;2.07;;
10894;SDS011;5500;49.886;8.074;2023-02-01T06:21:41;5.50;;;2.20;;
10894;SDS011;5500;49.886;8.074;2023-02-01T06:24:09;5.17;;;2.30;;
10894;SDS011;5500;49.886;8.074;2023-02-01T06:26:38;5.57;;;2.73;;
10894;SDS011;5500;49.886;8.074;2023-02-01T06:29:06;9.30;;;2.80;;
10894;SDS011;5500;49.886;8.074;2023-02-01T06:31:34;4.53;;;2.40;;
10894;SDS011;5500;49.886;8.074;2023-02-01T06:34:01;4.80;;;2.40;;
10894;SDS011;5500;49.886;8.074;2023-02-01T06:36:30;8.13;;;2.60;;
10894;SDS011;5500;49.886;8.074;2023-02-01T06:38:57;6.97;;;2.80;;
10894;SDS011;5500;49.886;8.074;2023-02-01T06:41:26;4.73;;;2.70;;
10894;SDS011;5500;49.886;8.074;2023-02-01T06:43:56;5.47;;;2.60;;
10894;SDS011;5500;49.886;8.074;2023-02-01T06:46:23;9.10;;;2.77;;
10894;SDS011;5500;49.886;8.074;2023-02-01T06:48:51;7.97;;;2.73;;
10894;SDS011;5500;49.886;8.074;2023-02-01T06:51:20;7.50;;;2.60;;
10894;SDS011;5500;49.886;8.074;2023-02-01T06:53:48;8.50;;;2.40;;
10894;SDS011;5500;49.886;8.074;2023-02-01T06:56:16;8.80;;;3.20;;
10894;SDS011;5500;49.886;8.074;2023-02-01T06:58:44;8.63;;;3.70;;
10894;SDS011;5500;49.886;8.074;2023-02-01T07:01:13;6.87;;;2.93;;
10894;SDS011;5500;49.886;8.074;2023-02-01T07:03:41;9.60;;;3.50;;
10894;SDS011;5500;49.886;8.074;2023-02-01T07:06:09;10.07;;;3.77;;
10894;SDS011;5500;49.886;8.074;2023-02-01T07:08:37;7.13;;;3.50;;
10894;SDS011;5500;49.886;8.074;2023-02-01T07:11:05;9.97;;;3.70;;
10894;SDS011;5500;49.886;8.074;2023-02-01T07:13:34;8.83;;;3.50;;
10894;SDS011;5500;49.886;8.074;2023-02-01T07:16:02;8.00;;;3.57;;
10894;SDS011;5500;49.886;8.074;2023-02-01T07:18:33;11.13;;;3.83;;
10894;SDS011;5500;49.886;8.074;2023-02-01T07:21:00;9.50;;;3.50;;
10894;SDS011;5500;49.886;8.074;2023-02-01T07:23:28;9.33;;;3.60;;
10894;SDS011;5500;49.886;8.074;2023-02-01T07:25:57;10.17;;;3.37;;
10894;SDS011;5500;49.886;8.074;2023-02-01T07:28:25;13.30;;;4.13;;
10894;SDS011;5500;49.886;8.074;2023-02-01T07:30:53;10.77;;;3.80;;
10894;SDS011;5500;49.886;8.074;2023-02-01T07:33:22;7.37;;;3.40;;
10894;SDS011;5500;49.886;8.074;2023-02-01T07:35:54;14.33;;;3.93;;
10894;SDS011;5500;49.886;8.074;2023-02-01T07:38:22;11.00;;;3.77;;
10894;SDS011;5500;49.886;8.074;2023-02-01T07:40:49;10.93;;;3.47;;
10894;SDS011;5500;49.886;8.074;2023-02-01T07:43:17;13.50;;;3.33;;
10894;SDS011;5500;49.886;8.074;2023-02-01T07:45:49;8.70;;;2.80;;
10894;SDS011;5500;49.886;8.074;2023-02-01T07:48:17;10.87;;;3.50;;
10894;SDS011;5500;49.886;8.074;2023-02-01T07:50:45;12.40;;;3.73;;
10894;SDS011;5500;49.886;8.074;2023-02-01T07:53:14;9.23;;;3.97;;
10894;SDS011;5500;49.886;8.074;2023-02-01T07:55:42;9.27;;;3.23;;
10894;SDS011;5500;49.886;8.074;2023-02-01T07:58:09;10.80;;;3.00;;
10894;SDS011;5500;49.886;8.074;2023-02-01T08:00:37;11.07;;;3.50;;
10894;SDS011;5500;49.886;8.074;2023-02-01T08:03:22;9.30;;;3.07;;
10894;SDS011;5500;49.886;8.074;2023-02-01T08:05:53;12.40;;;3.33;;
10894;SDS011;5500;49.886;8.074;2023-02-01T08:08:23;9.03;;;3.50;;
10894;SDS011;5500;49.886;8.074;2023-02-01T08:10:50;11.37;;;3.20;;
10894;SDS011;5500;49.886;8.074;2023-02-01T08:13:20;12.97;;;3.40;;
10894;SDS011;5500;49.886;8.074;2023-02-01T08:15:48;13.53;;;3.90;;
10894;SDS011;5500;49.886;8.074;2023-02-01T08:18:15;10.80;;;2.87;;
10894;SDS011;5500;49.886;8.074;2023-02-01T08:20:44;10.93;;;3.23;;
10894;SDS011;5500;49.886;8.074;2023-02-01T08:23:13;13.13;;;3.30;;
10894;SDS011;5500;49.886;8.074;2023-02-01T08:25:43;13.07;;;3.40;;
10894;SDS011;5500;49.886;8.074;2023-02-01T08:28:11;14.63;;;3.33;;
10894;SDS011;5500;49.886;8.074;2023-02-01T08:30:39;9.63;;;2.93;;
10894;SDS011;5500;49.886;8.074;2023-02-01T08:33:08;12.80;;;3.50;;
10894;SDS011;5500;49.886;8.074;2023-02-01T08:35:36;14.03;;;3.47;;
10894;SDS011;5500;49.886;8.074;2023-02-01T08:38:09;9.13;;;3.10;;
10894;SDS011;5500;49.886;8.074;2023-02-01T08:40:36;11.47;;;2.90;;
10894;SDS011;5500;49.886;8.074;2023-02-01T08:43:06;8.93;;;3.17;;
10894;SDS011;5500;49.886;8.074;2023-02-01T08:45:33;12.40;;;2.90;;
10894;SDS011;5500;49.886;8.074;2023-02-01T08:48:01;12.57;;;3.20;;
10894;SDS011;5500;49.886;8.074;2023-02-01T08:50:29;11.23;;;2.93;;
10894;SDS011;5500;49.886;8.074;2023-02-01T08:52:56;15.97;;;3.17;;
10894;SDS011;5500;49.886;8.074;2023-02-01T08:55:24;11.50;;;3.73;;
10894;SDS011;5500;49.886;8.074;2023-02-01T08:57:52;10.27;;;2.63;;
10894;SDS011;5500;49.886;8.074;2023-02-01T09:00:21;8.03;;;3.50;;
10894;SDS011;5500;49.886;8.074;2023-02-01T09:02:50;10.43;;;3.13;;
10894;SDS011;5500;49.886;8.074;2023-02-01T09:05:17;5.23;;;2.30;;
10894;SDS011;5500;49.886;8.074;2023-02-01T09:07:48;12.47;;;3.50;;
10894;SDS011;5500;49.886;8.074;2023-02-01T09:10:16;13.83;;;3.00;;
10894;SDS011;5500;49.886;8.074;2023-02-01T09:12:55;9.00;;;2.57;;
10894;SDS011;5500;49.886;8.074;2023-02-01T09:15:24;11.47;;;2.80;;
10894;SDS011;5500;49.886;8.074;2023-02-01T09:17:51;12.03;;;2.57;;
10894;SDS011;5500;49.886;8.074;2023-02-01T09:20:19;8.93;;;2.70;;
10894;SDS011;5500;49.886;8.074;2023-02-01T09:22:50;10.37;;;2.40;;
10894;SDS011;5500;49.886;8.074;2023-02-01T09:25:18;11.43;;;2.80;;
10894;SDS011;5500;49.886;8.074;2023-02-01T09:27:46;8.23;;;2.70;;
10894;SDS011;5500;49.886;8.074;2023-02-01T09:30:14;8.50;;;2.57;;
10894;SDS011;5500;49.886;8.074;2023-02-01T09:32:43;9.17;;;2.23;;
10894;SDS011;5500;49.886;8.074;2023-02-01T09:35:10;7.70;;;2.50;;
10894;SDS011;5500;49.886;8.074;2023-02-01T09:37:38;10.17;;;3.07;;
10894;SDS011;5500;49.886;8.074;2023-02-01T09:40:06;9.00;;;3.37;;
10894;SDS011;5500;49.886;8.074;2023-02-01T09:42:43;8.60;;;2.80;;
10894;SDS011;5500;49.886;8.074;2023-02-01T09:45:19;8.13;;;2.80;;
10894;SDS011;5500;49.886;8.074;2023-02-01T09:47:52;13.63;;;3.27;;
10894;SDS011;5500;49.886;8.074;2023-02-01T09:50:22;11.87;;;2.70;;
10894;SDS011;5500;49.886;8.074;2023-02-01T09:52:57;5.43;;;2.87;;
10894;SDS011;5500;49.886;8.074;2023-02-01T09:55:28;13.23;;;2.50;;
10894;SDS011;5500;49.886;8.074;2023-02-01T09:58:01;11.93;;;3.00;;
10894;SDS011;5500;49.886;8.074;2023-02-01T10:00:33;6.43;;;2.50;;
10894;SDS011;5500;49.886;8.074;2023-02-01T10:03:04;8.00;;;3.43;;
10894;SDS011;5500;49.886;8.074;2023-02-01T10:05:39;9.87;;;2.53;;
10894;SDS011;5500;49.886;8.074;2023-02-01T10:08:16;7.50;;;3.00;;
10894;SDS011;5500;49.886;8.074;2023-02-01T10:10:48;8.70;;;2.73;;
10894;SDS011;5500;49.886;8.074;2023-02-01T10:13:23;9.97;;;3.00;;
10894;SDS011;5500;49.886;8.074;2023-02-01T10:16:02;9.03;;;2.57;;
10894;SDS011;5500;49.886;8.074;2023-02-01T10:18:45;9.83;;;2.83;;
10894;SDS011;5500;49.886;8.074;2023-02-01T10:21:22;8.77;;;2.20;;
10894;SDS011;5500;49.886;8.074;2023-02-01T10:24:11;11.80;;;2.83;;
10894;SDS011;5500;49.886;8.074;2023-02-01T10:26:57;10.47;;;2.50;;
10894;SDS011;5500;49.886;8.074;2023-02-01T10:29:28;7.37;;;2.70;;
10894;SDS011;5500;49.886;8.074;2023-02-01T10:32:00;11.30;;;2.33;;
10894;SDS011;5500;49.886;8.074;2023-02-01T10:34:31;7.60;;;2.40;;
10894;SDS011;5500;49.886;8.074;2023-02-01T10:37:01;9.63;;;3.37;;
10894;SDS011;5500;49.886;8.074;2023-02-01T10:39:39;10.47;;;2.47;;
10894;SDS011;5500;49.886;8.074;2023-02-01T10:42:07;14.90;;;3.37;;
10894;SDS011;5500;49.886;8.074;2023-02-01T10:44:38;10.27;;;2.77;;
10894;SDS011;5500;49.886;8.074;2023-02-01T10:47:09;12.30;;;2.90;;
10894;SDS011;5500;49.886;8.074;2023-02-01T10:49:41;11.23;;;2.70;;
10894;SDS011;5500;49.886;8.074;2023-02-01T10:52:13;10.80;;;3.20;;
10894;SDS011;5500;49.886;8.074;2023-02-01T10:54:43;12.80;;;3.30;;
10894;SDS011;5500;49.886;8.074;2023-02-01T10:57:19;14.30;;;3.03;;
10894;SDS011;5500;49.886;8.074;2023-02-01T10:59:48;9.47;;;3.20;;
10894;SDS011;5500;49.886;8.074;2023-02-01T11:02:19;9.70;;;2.33;;
10894;SDS011;5500;49.886;8.074;2023-02-01T11:04:49;11.00;;;2.90;;
10894;SDS011;5500;49.886;8.074;2023-02-01T11:07:19;15.77;;;3.10;;
10894;SDS011;5500;49.886;8.074;2023-02-01T11:09:51;12.47;;;3.17;;
10894;SDS011;5500;49.886;8.074;2023-02-01T11:12:22;8.83;;;2.57;;
10894;SDS011;5500;49.886;8.074;2023-02-01T11:14:56;13.50;;;3.30;;
10894;SDS011;5500;49.886;8.074;2023-02-01T11:17:26;7.80;;;2.33;;
10894;SDS011;5500;49.886;8.074;2023-02-01T11:20:00;12.90;;;3.10;;
10894;SDS011;5500;49.886;8.074;2023-02-01T11:22:29;9.87;;;2.83;;
10894;SDS011;5500;49.886;8.074;2023-02-01T11:24:56;10.70;;;2.60;;
10894;SDS011;5500;49.886;8.074;2023-02-01T11:27:26;9.37;;;3.23;;
10894;SDS011;5500;49.886;8.074;2023-02-01T11:29:56;11.57;;;3.23;;
10894;SDS011;5500;49.886;8.074;2023-02-01T11:32:26;12.40;;;2.93;;
10894;SDS011;5500;49.886;8.074;2023-02-01T11:34:55;12.80;;;3.20;;
10894;SDS011;5500;49.886;8.074;2023-02-01T11:37:28;10.67;;;2.77;;
10894;SDS011;5500;49.886;8.074;2023-02-01T11:39:58;11.60;;;2.57;;
10894;SDS011;5500;49.886;8.074;2023-02-01T11:42:27;9.87;;;2.90;;
10894;SDS011;5500;49.886;8.074;2023-02-01T11:45:16;12.00;;;2.33;;
10894;SDS011;5500;49.886;8.074;2023-02-01T11:47:46;14.53;;;2.87;;
10894;SDS011;5500;49.886;8.074;2023-02-01T11:50:21;9.27;;;2.47;;
10894;SDS011;5500;49.886;8.074;2023-02-01T11:53:07;6.20;;;2.60;;
10894;SDS011;5500;49.886;8.074;2023-02-01T11:58:38;7.60;;;3.10;;
10894;SDS011;5500;49.886;8.074;2023-02-01T12:01:30;7.80;;;2.37;;
10894;SDS011;5500;49.886;8.074;2023-02-01T12:04:18;12.80;;;3.20;;
10894;SDS011;5500;49.886;8.074;2023-02-01T12:06:57;11.17;;;2.97;;
10894;SDS011;5500;49.886;8.074;2023-02-01T12:12:31;8.13;;;2.53;;
10894;SDS011;5500;49.886;8.074;2023-02-01T12:15:08;7.83;;;2.70;;
10894;SDS011;5500;49.886;8.074;2023-02-01T12:18:05;9.33;;;2.60;;
10894;SDS011;5500;49.886;8.074;2023-02-01T12:20:59;7.67;;;2.83;;
10894;SDS011;5500;49.886;8.074;2023-02-01T12:23:44;12.83;;;2.97;;
10894;SDS011;5500;49.886;8.074;2023-02-01T12:26:35;11.43;;;2.57;;
10894;SDS011;5500;49.886;8.074;2023-02-01T12:29:15;9.20;;;2.10;;
10894;SDS011;5500;49.886;8.074;2023-02-01T12:31:57;7.83;;;2.30;;
10894;SDS011;5500;49.886;8.074;2023-02-01T12:34:46;13.07;;;3.27;;
10894;SDS011;5500;49.886;8.074;2023-02-01T12:37:24;13.20;;;2.80;;
10894;SDS011;5500;49.886;8.074;2023-02-01T12:40:00;12.77;;;2.10;;
10894;SDS011;5500;49.886;8.074;2023-02-01T12:42:33;12.47;;;3.00;;
10894;SDS011;5500;49.886;8.074;2023-02-01T12:45:07;6.77;;;1.93;;
10894;SDS011;5500;49.886;8.074;2023-02-01T12:47:40;10.10;;;2.87;;
10894;SDS011;5500;49.886;8.074;2023-02-01T12:50:12;12.93;;;2.80;;
10894;SDS011;5500;49.886;8.074;2023-02-01T12:52:44;6.77;;;2.70;;
10894;SDS011;5500;49.886;8.074;2023-02-01T12:55:15;17.60;;;3.37;;
10894;SDS011;5500;49.886;8.074;2023-02-01T12:57:50;6.43;;;2.20;;
10894;SDS011;5500;49.886;8.074;2023-02-01T13:00:22;9.40;;;2.27;;
10894;SDS011;5500;49.886;8.074;2023-02-01T13:02:55;8.50;;;2.33;;
10894;SDS011;5500;49.886;8.074;2023-02-01T13:05:27;8.33;;;2.37;;
10894;SDS011;5500;49.886;8.074;2023-02-01T13:07:57;9.77;;;2.67;;
10894;SDS011;5500;49.886;8.074;2023-02-01T13:10:28;12.47;;;2.37;;
10894;SDS011;5500;49.886;8.074;2023-02-01T13:13:03;8.73;;;2.80;;
10894;SDS011;5500;49.886;8.074;2023-02-01T13:15:38;11.33;;;2.53;;
10894;SDS011;5500;49.886;8.074;2023-02-01T13:18:09;8.20;;;2.23;;
10894;SDS011;5500;49.886;8.074;2023-02-01T13:20:42;7.07;;;2.40;;
10894;SDS011;5500;49.886;8.074;2023-02-01T13:23:22;7.10;;;2.57;;
10894;SDS011;5500;49.886;8.074;2023-02-01T13:25:52;9.50;;;2.47;;
10894;SDS011;5500;49.886;8.074;2023-02-01T13:28:25;7.47;;;2.27;;
10894;SDS011;5500;49.886;8.074;2023-02-01T13:31:07;8.73;;;2.73;;
10894;SDS011;5500;49.886;8.074;2023-02-01T13:33:49;11.43;;;2.57;;
10894;SDS011;5500;49.886;8.074;2023-02-01T13:42:13;10.37;;;2.70;;
10894;SDS011;5500;49.886;8.074;2023-02-01T13:44:45;6.83;;;2.20;;
10894;SDS011;5500;49.886;8.074;2023-02-01T13:47:17;9.30;;;3.50;;
10894;SDS011;5500;49.886;8.074;2023-02-01T13:49:49;7.67;;;2.77;;
10894;SDS011;5500;49.886;8.074;2023-02-01T13:52:25;9.27;;;2.67;;
10894;SDS011;5500;49.886;8.074;2023-02-01T13:55:03;9.33;;;2.83;;
10894;SDS011;5500;49.886;8.074;2023-02-01T13:57:42;8.37;;;2.73;;
10894;SDS011;5500;49.886;8.074;2023-02-01T14:00:24;8.90;;;2.27;;
10894;SDS011;5500;49.886;8.074;2023-02-01T14:06:03;6.37;;;2.40;;
10894;SDS011;5500;49.886;8.074;2023-02-01T14:08:46;7.77;;;2.07;;
10894;SDS011;5500;49.886;8.074;2023-02-01T14:11:43;8.17;;;2.37;;
10894;SDS011;5500;49.886;8.074;2023-02-01T14:23:16;8.10;;;2.67;;
10894;SDS011;5500;49.886;8.074;2023-02-01T14:26:17;10.23;;;2.67;;
10894;SDS011;5500;49.886;8.074;2023-02-01T14:28:50;13.67;;;2.80;;
10894;SDS011;5500;49.886;8.074;2023-02-01T14:31:37;6.20;;;2.00;;
10894;SDS011;5500;49.886;8.074;2023-02-01T14:34:13;7.33;;;2.63;;
10894;SDS011;5500;49.886;8.074;2023-02-01T14:36:45;6.87;;;2.27;;
10894;SDS011;5500;49.886;8.074;2023-02-01T14:39:19;12.70;;;2.73;;
10894;SDS011;5500;49.886;8.074;2023-02-01T14:41:51;8.73;;;2.50;;
10894;SDS011;5500;49.886;8.074;2023-02-01T14:44:32;10.60;;;3.20;;
10894;SDS011;5500;49.886;8.074;2023-02-01T14:49:58;8.50;;;2.30;;
10894;SDS011;5500;49.886;8.074;2023-02-01T14:52:30;6.13;;;2.00;;
10894;SDS011;5500;49.886;8.074;2023-02-01T14:55:02;6.73;;;2.20;;
10894;SDS011;5500;49.886;8.074;2023-02-01T14:57:33;5.83;;;2.40;;
10894;SDS011;5500;49.886;8.074;2023-02-01T15:00:06;7.33;;;2.50;;
10894;SDS011;5500;49.886;8.074;2023-02-01T15:02:36;5.13;;;1.90;;
10894;SDS011;5500;49.886;8.074;2023-02-01T15:05:16;6.73;;;2.27;;
10894;SDS011;5500;49.886;8.074;2023-02-01T15:07:50;10.13;;;2.30;;
10894;SDS011;5500;49.886;8.074;2023-02-01T15:10:18;7.73;;;2.33;;
10894;SDS011;5500;49.886;8.074;2023-02-01T15:12:48;13.50;;;2.60;;
10894;SDS011;5500;49.886;8.074;2023-02-01T15:15:17;7.57;;;2.57;;
10894;SDS011;5500;49.886;8.074;2023-02-01T15:17:50;12.57;;;2.90;;
10894;SDS011;5500;49.886;8.074;2023-02-01T15:20:20;7.57;;;2.30;;
10894;SDS011;5500;49.886;8.074;2023-02-01T15:22:53;5.67;;;2.17;;
10894;SDS011;5500;49.886;8.074;2023-02-01T15:25:22;8.27;;;2.30;;
10894;SDS011;5500;49.886;8.074;2023-02-01T15:27:51;5.67;;;2.07;;
10894;SDS011;5500;49.886;8.074;2023-02-01T15:30:20;10.53;;;2.73;;
10894;SDS011;5500;49.886;8.074;2023-02-01T15:32:50;9.27;;;2.40;;
10894;SDS011;5500;49.886;8.074;2023-02-01T15:38:19;12.00;;;4.33;;
10894;SDS011;5500;49.886;8.074;2023-02-01T15:41:02;10.57;;;3.53;;
10894;SDS011;5500;49.886;8.074;2023-02-01T15:43:36;12.47;;;3.50;;
10894;SDS011;5500;49.886;8.074;2023-02-01T15:46:07;7.40;;;3.00;;
10894;SDS011;5500;49.886;8.074;2023-02-01T15:48:37;6.50;;;3.20;;
10894;SDS011;5500;49.886;8.074;2023-02-01T15:51:12;7.83;;;2.90;;
10894;SDS011;5500;49.886;8.074;2023-02-01T15:53:44;8.10;;;2.40;;
10894;SDS011;5500;49.886;8.074;2023-02-01T15:56:23;13.40;;;2.93;;
10894;SDS011;5500;49.886;8.074;2023-02-01T15:58:55;8.73;;;2.80;;
10894;SDS011;5500;49.886;8.074;2023-02-01T16:01:24;9.63;;;2.63;;
10894;SDS011;5500;49.886;8.074;2023-02-01T16:04:01;7.43;;;2.10;;